Time;durP1;ratioP1;P1;durP2;ratioP2;P2;SDS_P1;SDS_P2;PMS_P1;PMS_P2;Temp;Humidity;BMP_temperature;BMP_pressure;BME280_temperature;BME280_humidity;BME280_pressure;Samples;Min_cycle;Max_cycle;Signal;HPM_P1;HPM_P2
2022/11/16 00:00:31;;;;;;;20.88;16.13;;;6.20;99.90;;;;;;5031228;28;20203;-74
2022/11/16 00:03:00;;;;;;;22.23;15.15;;;6.20;99.90;;;;;;5025255;28;20632;-74
2022/11/16 00:05:25;;;;;;;24.58;16.35;;;6.20;99.90;;;;;;5035413;28;20179;-74
2022/11/16 00:07:51;;;;;;;24.13;15.50;;;6.10;99.90;;;;;;5031011;28;20184;-75
2022/11/16 00:10:16;;;;;;;20.33;15.27;;;6.20;99.90;;;;;;5019306;28;20594;-76
2022/11/16 00:12:42;;;;;;;28.45;16.80;;;6.20;99.90;;;;;;5035796;28;20168;-75
2022/11/16 00:15:08;;;;;;;19.85;14.38;;;6.20;99.90;;;;;;5043816;28;20661;-75
2022/11/16 00:17:33;;;;;;;19.00;14.43;;;6.10;99.90;;;;;;5026704;28;20180;-75
2022/11/16 00:19:59;;;;;;;15.85;12.77;;;6.10;99.90;;;;;;5033316;28;20184;-75
2022/11/16 00:22:24;;;;;;;17.33;13.18;;;6.10;99.90;;;;;;5033995;28;20176;-75
2022/11/16 00:24:50;;;;;;;18.17;13.13;;;6.10;99.90;;;;;;5034610;28;20188;-75
2022/11/16 00:27:16;;;;;;;15.85;13.50;;;6.10;99.90;;;;;;5036083;28;20256;-74
2022/11/16 00:29:41;;;;;;;15.10;13.50;;;6.10;99.90;;;;;;5030110;28;20210;-74
2022/11/16 00:32:07;;;;;;;16.98;13.73;;;6.10;99.90;;;;;;5032869;28;20181;-75
2022/11/16 00:34:32;;;;;;;16.27;13.70;;;6.10;99.90;;;;;;5033917;28;20671;-75
2022/11/16 00:36:58;;;;;;;14.93;13.27;;;6.10;99.90;;;;;;5030318;28;20184;-75
2022/11/16 00:39:24;;;;;;;14.50;12.23;;;6.10;99.90;;;;;;5031974;28;20203;-75
2022/11/16 00:41:49;;;;;;;16.10;13.77;;;6.10;99.90;;;;;;5040061;28;20191;-75
2022/11/16 00:44:15;;;;;;;20.83;14.25;;;6.10;99.90;;;;;;5025518;28;20197;-74
2022/11/16 00:46:41;;;;;;;16.67;14.40;;;6.20;99.90;;;;;;5034423;28;20199;-74
2022/11/16 00:49:07;;;;;;;22.98;15.32;;;6.20;99.90;;;;;;5038455;28;20577;-75
2022/11/16 00:51:34;;;;;;;21.52;14.70;;;6.10;99.90;;;;;;5032980;28;20268;-76
2022/11/16 00:54:00;;;;;;;17.23;14.63;;;6.10;99.90;;;;;;5029945;28;20191;-75
2022/11/16 00:56:26;;;;;;;19.08;14.20;;;6.00;99.90;;;;;;5046302;28;20181;-75
2022/11/16 00:58:51;;;;;;;17.27;14.38;;;6.00;99.90;;;;;;5038931;28;20894;-75
2022/11/16 01:01:17;;;;;;;20.10;15.15;;;6.00;99.90;;;;;;5044758;28;20271;-75
2022/11/16 01:03:43;;;;;;;29.85;16.73;;;5.90;99.90;;;;;;5039293;28;20206;-75
2022/11/16 01:06:10;;;;;;;18.52;14.82;;;5.90;99.90;;;;;;5039737;28;20624;-76
2022/11/16 01:08:37;;;;;;;16.40;13.30;;;5.80;99.90;;;;;;5041368;28;20196;-75
2022/11/16 01:13:49;;;;;;;22.02;15.02;;;5.90;99.90;;;;;;5033795;28;20196;-75
2022/11/16 01:16:17;;;;;;;19.38;15.35;;;5.90;99.90;;;;;;5043268;28;20188;-76
2022/11/16 01:18:46;;;;;;;19.33;14.82;;;5.90;99.90;;;;;;5030729;28;20845;-76
2022/11/16 01:21:11;;;;;;;19.75;15.55;;;5.80;99.90;;;;;;5037874;28;20236;-75
2022/11/16 01:23:37;;;;;;;17.70;14.13;;;5.80;99.90;;;;;;5040710;28;20180;-76
2022/11/16 01:26:02;;;;;;;22.58;16.10;;;5.80;99.90;;;;;;5032732;28;20180;-75
2022/11/16 01:28:29;;;;;;;20.73;15.25;;;5.90;99.90;;;;;;5030365;28;20199;-75
2022/11/16 01:30:55;;;;;;;21.05;16.20;;;5.90;99.90;;;;;;5042580;28;20236;-75
2022/11/16 01:33:21;;;;;;;20.95;15.60;;;5.90;99.90;;;;;;5048996;28;20663;-75
2022/11/16 01:35:47;;;;;;;19.13;15.02;;;5.90;99.90;;;;;;5042072;28;20180;-76
2022/11/16 01:38:12;;;;;;;18.83;15.40;;;5.90;99.90;;;;;;5036600;28;20258;-75
2022/11/16 01:40:38;;;;;;;23.42;16.20;;;5.80;99.90;;;;;;5031417;28;20326;-75
2022/11/16 01:43:15;;;;;;;23.02;16.70;;;5.80;99.90;;;;;;5034323;28;20214;-75
2022/11/16 01:45:41;;;;;;;19.67;15.32;;;5.80;99.90;;;;;;5035469;28;20213;-75
2022/11/16 01:48:08;;;;;;;22.70;16.63;;;5.80;99.90;;;;;;5036899;28;20214;-75
2022/11/16 01:50:34;;;;;;;24.98;17.13;;;5.90;99.90;;;;;;5041854;28;20196;-74
2022/11/16 01:53:03;;;;;;;22.00;17.30;;;5.80;99.90;;;;;;5035901;28;20187;-75
2022/11/16 01:55:32;;;;;;;22.42;15.95;;;5.80;99.90;;;;;;5033735;28;20631;-75
2022/11/16 01:57:59;;;;;;;20.25;16.17;;;5.80;99.90;;;;;;5028478;28;20287;-75
2022/11/16 02:00:25;;;;;;;18.90;15.10;;;5.80;99.90;;;;;;5040137;28;20180;-75
2022/11/16 02:02:51;;;;;;;20.05;16.17;;;5.80;99.90;;;;;;5033943;28;20553;-75
2022/11/16 02:05:19;;;;;;;19.20;15.07;;;5.90;99.90;;;;;;5041474;28;20188;-75
2022/11/16 02:11:20;;;;;;;18.13;13.95;;;5.90;99.90;;;;;;5040492;28;20276;-76
2022/11/16 02:14:10;;;;;;;21.77;15.55;;;5.90;99.90;;;;;;5027766;28;20192;-75
2022/11/16 02:16:40;;;;;;;19.33;14.52;;;6.00;99.90;;;;;;5035621;28;20191;-75
2022/11/16 02:19:32;;;;;;;20.67;15.15;;;6.00;99.90;;;;;;5045109;28;20192;-75
2022/11/16 02:22:46;;;;;;;20.33;15.55;;;5.90;99.90;;;;;;5034961;28;20225;-75
2022/11/16 02:25:26;;;;;;;19.30;14.98;;;6.00;99.90;;;;;;5042743;28;20183;-76
2022/11/16 02:28:10;;;;;;;19.92;14.85;;;6.00;99.90;;;;;;5030431;28;20307;-76
2022/11/16 02:30:39;;;;;;;20.90;16.08;;;6.00;99.90;;;;;;5026141;28;20262;-75
2022/11/16 02:33:12;;;;;;;20.80;15.38;;;6.00;99.90;;;;;;5048101;28;20187;-76
2022/11/16 02:35:43;;;;;;;20.95;14.88;;;6.00;99.90;;;;;;5040388;28;20639;-75
2022/11/16 02:38:16;;;;;;;19.92;15.02;;;5.90;99.90;;;;;;5045305;28;20200;-75
2022/11/16 02:40:45;;;;;;;22.30;15.45;;;5.90;99.90;;;;;;5039338;28;20209;-75
2022/11/16 02:43:16;;;;;;;21.63;14.82;;;5.90;99.90;;;;;;5043096;28;20233;-76
2022/11/16 02:45:46;;;;;;;26.80;17.92;;;5.90;99.90;;;;;;5029769;28;20185;-75
2022/11/16 02:48:22;;;;;;;21.52;16.13;;;5.90;99.90;;;;;;5030276;28;20227;-75
2022/11/16 02:50:51;;;;;;;22.33;16.20;;;5.90;99.90;;;;;;5038282;28;20298;-75
2022/11/16 02:53:19;;;;;;;20.45;16.35;;;5.90;99.90;;;;;;5043299;28;20202;-75
2022/11/16 02:55:45;;;;;;;23.30;16.65;;;5.90;99.90;;;;;;5043202;28;20200;-75
2022/11/16 02:58:13;;;;;;;21.85;15.00;;;5.90;99.90;;;;;;5034628;28;20223;-74
2022/11/16 03:00:52;;;;;;;30.77;15.93;;;5.90;99.90;;;;;;5037347;28;20209;-75
2022/11/16 03:03:21;;;;;;;26.67;18.00;;;5.90;99.90;;;;;;5030246;28;20359;-74
2022/11/16 03:05:53;;;;;;;22.02;16.75;;;5.90;99.90;;;;;;5032003;28;20631;-74
2022/11/16 03:08:36;;;;;;;17.40;14.25;;;5.90;99.90;;;;;;5033718;28;20204;-74
2022/11/16 03:13:59;;;;;;;27.25;17.52;;;5.90;99.90;;;;;;5038382;28;20540;-75
2022/11/16 03:16:24;;;;;;;27.17;17.65;;;5.90;99.90;;;;;;5037726;28;20211;-75
2022/11/16 03:18:52;;;;;;;23.73;17.10;;;5.90;99.90;;;;;;5043700;28;20616;-75
2022/11/16 03:21:29;;;;;;;25.00;17.63;;;5.90;99.90;;;;;;5024153;28;20192;-76
2022/11/16 03:23:55;;;;;;;24.70;17.67;;;5.90;99.90;;;;;;5029166;28;20208;-76
2022/11/16 03:26:24;;;;;;;22.58;16.38;;;5.90;99.90;;;;;;5042896;28;20215;-75
2022/11/16 03:28:59;;;;;;;25.38;18.13;;;5.90;99.90;;;;;;5041220;28;20207;-75
2022/11/16 03:31:32;;;;;;;29.13;17.88;;;6.00;99.90;;;;;;5035073;28;20274;-75
2022/11/16 03:34:02;;;;;;;24.73;17.23;;;6.00;99.90;;;;;;5037239;28;20173;-75
2022/11/16 03:36:34;;;;;;;26.13;17.00;;;5.90;99.90;;;;;;5027671;28;20223;-75
2022/11/16 03:39:25;;;;;;;26.23;16.60;;;5.90;99.90;;;;;;5024395;28;20209;-75
2022/11/16 03:41:52;;;;;;;27.90;18.02;;;5.90;99.90;;;;;;5030503;28;20215;-76
2022/11/16 03:44:19;;;;;;;24.60;17.42;;;5.90;99.90;;;;;;5042357;28;20238;-75
2022/11/16 03:46:46;;;;;;;28.63;18.38;;;5.90;99.90;;;;;;5038147;28;20198;-75
2022/11/16 03:49:11;;;;;;;29.10;19.45;;;5.90;99.90;;;;;;5030999;28;20266;-75
2022/11/16 03:51:37;;;;;;;26.13;17.33;;;5.90;99.90;;;;;;5031481;28;20168;-74
2022/11/16 03:54:04;;;;;;;29.48;17.63;;;5.80;99.90;;;;;;5027528;28;20811;-75
2022/11/16 03:56:29;;;;;;;34.15;18.55;;;5.80;99.90;;;;;;5035238;28;20275;-76
2022/11/16 03:58:55;;;;;;;29.40;18.20;;;5.70;99.90;;;;;;5035916;28;20295;-75
2022/11/16 04:01:20;;;;;;;27.58;17.10;;;5.70;99.90;;;;;;5041804;28;20188;-75
2022/11/16 04:03:46;;;;;;;27.35;18.00;;;5.80;99.90;;;;;;5042913;28;20690;-76
2022/11/16 04:25:34;;;;;;;26.60;17.58;;;5.80;99.90;;;;;;5024105;28;20226;-75
2022/11/16 04:28:13;;;;;;;22.83;17.08;;;5.80;99.90;;;;;;5041108;28;20189;-75
2022/11/16 04:39:24;;;;;;;28.17;18.52;;;5.80;99.90;;;;;;5039909;28;20264;-75
2022/11/16 04:47:19;;;;;;;28.95;18.13;;;5.80;99.90;;;;;;5041914;28;20800;-76
2022/11/16 04:49:44;;;;;;;28.15;17.88;;;5.80;99.90;;;;;;5041116;28;20211;-76
2022/11/16 04:52:10;;;;;;;26.77;18.10;;;5.80;99.90;;;;;;5039593;28;20214;-76
2022/11/16 04:54:36;;;;;;;24.00;16.33;;;5.80;99.90;;;;;;5042557;28;20168;-76
2022/11/16 04:57:01;;;;;;;30.33;17.92;;;5.90;99.90;;;;;;5039778;28;20217;-74
2022/11/16 04:59:27;;;;;;;24.80;17.88;;;5.90;99.90;;;;;;5034597;28;20702;-75
2022/11/16 05:02:08;;;;;;;30.83;20.30;;;5.90;99.90;;;;;;5034196;28;20212;-76
2022/11/16 05:04:39;;;;;;;27.58;18.55;;;6.00;99.90;;;;;;5032555;28;20227;-74
2022/11/16 05:07:09;;;;;;;30.77;17.80;;;5.90;99.90;;;;;;5042961;28;20184;-75
2022/11/16 05:09:46;;;;;;;25.98;17.98;;;5.90;99.90;;;;;;5039605;28;20204;-75
2022/11/16 05:12:23;;;;;;;27.70;18.45;;;6.00;99.90;;;;;;5038986;28;20169;-74
2022/11/16 05:14:49;;;;;;;28.77;18.67;;;5.90;99.90;;;;;;5030025;28;20243;-75
2022/11/16 05:17:16;;;;;;;33.03;18.48;;;5.90;99.90;;;;;;5022961;28;20640;-75
2022/11/16 05:22:26;;;;;;;27.67;18.70;;;5.80;99.90;;;;;;5024076;28;20231;-75
2022/11/16 05:24:52;;;;;;;30.50;18.70;;;5.80;99.90;;;;;;5025997;28;20204;-75
2022/11/16 05:27:20;;;;;;;28.45;17.05;;;5.70;99.90;;;;;;5023608;28;20700;-75
2022/11/16 05:29:45;;;;;;;28.63;18.50;;;5.80;99.90;;;;;;5030270;28;20262;-75
2022/11/16 05:32:12;;;;;;;28.85;17.13;;;5.80;99.90;;;;;;5021392;28;20537;-75
2022/11/16 05:34:37;;;;;;;30.23;18.40;;;5.80;99.90;;;;;;5017581;28;20178;-75
2022/11/16 05:37:03;;;;;;;28.48;17.40;;;5.70;99.90;;;;;;5017002;28;20243;-76
2022/11/16 05:39:29;;;;;;;26.48;18.52;;;5.80;99.90;;;;;;5021621;28;20195;-74
2022/11/16 05:41:55;;;;;;;25.63;15.95;;;5.80;99.90;;;;;;5020909;28;20216;-75
2022/11/16 05:44:21;;;;;;;31.35;18.58;;;5.70;99.90;;;;;;5024502;28;20797;-75
2022/11/16 05:46:47;;;;;;;27.23;17.23;;;5.80;99.90;;;;;;5015937;28;20229;-75
2022/11/16 05:49:13;;;;;;;26.05;17.42;;;5.70;99.90;;;;;;5016766;28;20228;-76
2022/11/16 05:51:41;;;;;;;25.75;17.33;;;5.80;99.90;;;;;;5015547;28;20205;-74
2022/11/16 05:54:07;;;;;;;21.75;15.32;;;5.70;99.90;;;;;;5021228;28;21523;-75
2022/11/16 05:56:33;;;;;;;29.60;16.42;;;5.70;99.90;;;;;;5020794;28;20172;-76
2022/11/16 05:58:59;;;;;;;23.10;15.63;;;5.80;99.90;;;;;;5036328;28;20199;-75
2022/11/16 06:01:25;;;;;;;24.52;16.33;;;5.70;99.90;;;;;;5028310;28;20184;-77
2022/11/16 06:03:51;;;;;;;24.90;16.25;;;5.70;99.90;;;;;;5040399;28;20271;-76
2022/11/16 06:06:18;;;;;;;25.40;15.57;;;5.60;99.90;;;;;;5028547;28;20319;-76
2022/11/16 06:08:44;;;;;;;19.58;13.98;;;5.70;99.90;;;;;;5033684;28;20282;-76
2022/11/16 06:11:10;;;;;;;22.23;15.20;;;5.70;99.90;;;;;;5033309;28;20302;-78
2022/11/16 06:13:36;;;;;;;20.95;14.52;;;5.70;99.90;;;;;;5029091;28;20542;-77
2022/11/16 06:16:02;;;;;;;21.50;15.32;;;5.80;99.90;;;;;;5031779;28;20201;-77
2022/11/16 06:18:28;;;;;;;20.95;13.48;;;5.80;99.90;;;;;;5040899;28;20273;-76
2022/11/16 06:20:54;;;;;;;17.90;12.98;;;5.90;99.90;;;;;;5031671;28;20199;-76
2022/11/16 06:23:20;;;;;;;22.85;15.20;;;5.90;99.90;;;;;;5033154;28;20181;-77
2022/11/16 06:25:45;;;;;;;19.75;14.48;;;5.90;99.90;;;;;;5034179;28;20184;-77
2022/11/16 06:28:11;;;;;;;21.80;14.85;;;5.80;99.90;;;;;;5038365;28;20219;-76
2022/11/16 06:30:39;;;;;;;21.23;14.98;;;5.80;99.90;;;;;;5037858;28;20288;-76
2022/11/16 06:33:04;;;;;;;16.33;13.05;;;5.80;99.90;;;;;;5042533;28;20169;-77
2022/11/16 06:35:30;;;;;;;19.10;14.27;;;5.80;99.90;;;;;;5027644;28;20270;-79
2022/11/16 06:37:56;;;;;;;19.15;13.95;;;5.90;99.90;;;;;;5027056;28;20722;-77
2022/11/16 06:40:22;;;;;;;18.02;12.75;;;5.90;99.90;;;;;;5039313;28;20188;-75
2022/11/16 06:42:48;;;;;;;22.85;14.93;;;5.90;99.90;;;;;;5044501;28;20184;-76
2022/11/16 06:45:14;;;;;;;21.45;15.35;;;5.90;99.90;;;;;;5032776;28;20196;-77
2022/11/16 06:47:39;;;;;;;22.05;15.02;;;5.80;99.90;;;;;;5031904;28;20698;-75
2022/11/16 06:50:05;;;;;;;20.88;13.48;;;5.70;99.90;;;;;;5019484;28;20228;-78
2022/11/16 06:52:31;;;;;;;21.27;14.40;;;5.70;99.90;;;;;;5031860;28;20606;-76
2022/11/16 06:54:57;;;;;;;18.02;13.07;;;5.80;99.90;;;;;;5039598;28;20172;-75
2022/11/16 06:57:22;;;;;;;20.10;13.15;;;5.80;99.90;;;;;;5027679;28;20179;-75
2022/11/16 06:59:48;;;;;;;20.13;13.05;;;5.90;99.90;;;;;;5027824;28;20575;-77
2022/11/16 07:02:14;;;;;;;19.65;12.80;;;5.90;99.90;;;;;;5029579;28;20559;-75
2022/11/16 07:04:40;;;;;;;17.33;12.73;;;5.80;99.90;;;;;;5037030;28;20198;-75
2022/11/16 07:07:05;;;;;;;19.48;13.00;;;5.90;99.90;;;;;;5043218;28;20172;-76
2022/11/16 07:09:31;;;;;;;18.50;12.57;;;5.90;99.90;;;;;;5042614;28;20720;-76
2022/11/16 07:11:56;;;;;;;18.30;12.73;;;6.00;99.90;;;;;;5031832;28;20250;-75
2022/11/16 07:14:22;;;;;;;17.40;12.05;;;6.00;99.90;;;;;;5022650;28;20181;-75
2022/11/16 07:16:47;;;;;;;17.27;12.30;;;6.00;99.90;;;;;;5032501;28;20188;-76
2022/11/16 07:19:13;;;;;;;16.73;12.77;;;6.00;99.90;;;;;;5021316;28;20266;-75
2022/11/16 07:21:39;;;;;;;17.20;12.43;;;6.00;99.90;;;;;;5026016;28;20191;-75
2022/11/16 07:24:04;;;;;;;21.23;13.88;;;6.00;99.90;;;;;;5043411;28;20270;-75
2022/11/16 07:26:35;;;;;;;20.77;13.27;;;6.00;99.90;;;;;;5036129;28;20527;-73
2022/11/16 07:29:00;;;;;;;19.20;12.60;;;5.90;99.90;;;;;;5021679;28;20576;-79
2022/11/16 07:31:26;;;;;;;18.75;12.20;;;5.90;99.90;;;;;;5040637;28;20176;-76
2022/11/16 07:33:53;;;;;;;16.40;12.75;;;5.90;99.90;;;;;;5043226;28;20187;-75
2022/11/16 07:36:19;;;;;;;19.23;12.55;;;5.90;99.90;;;;;;5041447;28;20179;-76
2022/11/16 07:38:45;;;;;;;18.88;12.98;;;5.90;99.90;;;;;;5037802;28;20192;-76
2022/11/16 07:41:13;;;;;;;16.23;12.00;;;5.90;99.90;;;;;;5034423;28;20232;-78
2022/11/16 07:43:39;;;;;;;17.88;11.52;;;5.80;99.90;;;;;;5028004;28;20233;-76
2022/11/16 07:46:16;;;;;;;17.80;12.90;;;5.90;99.90;;;;;;5031455;28;20176;-76
2022/11/16 07:48:42;;;;;;;17.83;12.68;;;6.00;99.90;;;;;;5033310;28;20286;-77
2022/11/16 07:51:12;;;;;;;19.35;12.73;;;6.00;99.90;;;;;;5043098;28;20224;-78
2022/11/16 07:53:38;;;;;;;16.85;11.52;;;6.00;99.90;;;;;;5050810;28;20199;-77
2022/11/16 07:56:04;;;;;;;16.90;12.88;;;5.90;99.90;;;;;;5033758;28;20177;-77
2022/11/16 07:58:32;;;;;;;16.80;12.98;;;5.80;99.90;;;;;;5019423;28;20205;-77
2022/11/16 08:01:12;;;;;;;16.08;12.27;;;5.80;99.90;;;;;;5040236;28;20195;-76
2022/11/16 08:03:39;;;;;;;15.30;12.27;;;5.80;99.90;;;;;;5018784;28;20173;-78
2022/11/16 08:06:10;;;;;;;15.80;12.25;;;5.80;99.90;;;;;;5029784;28;20188;-77
2022/11/16 08:08:35;;;;;;;14.18;11.10;;;5.80;99.90;;;;;;5027524;28;20196;-76
2022/11/16 08:11:07;;;;;;;11.70;10.20;;;5.80;99.90;;;;;;5022523;28;20552;-75
2022/11/16 08:13:34;;;;;;;11.60;9.75;;;5.80;99.90;;;;;;5023040;28;20552;-76
2022/11/16 08:16:06;;;;;;;14.43;10.27;;;5.80;99.90;;;;;;5020711;28;20177;-76
2022/11/16 08:18:32;;;;;;;14.23;9.80;;;5.90;99.90;;;;;;5025300;28;20205;-76
2022/11/16 08:20:58;;;;;;;16.63;10.98;;;5.90;99.90;;;;;;5026590;28;20176;-76
2022/11/16 08:23:24;;;;;;;14.13;11.55;;;5.90;99.90;;;;;;5026023;28;20196;-84
2022/11/16 08:25:50;;;;;;;9.48;7.90;;;6.00;99.90;;;;;;5028302;28;20180;-83
2022/11/16 08:28:16;;;;;;;12.63;10.32;;;6.10;99.90;;;;;;5029961;28;20609;-83
2022/11/16 08:30:41;;;;;;;8.80;7.80;;;6.00;99.90;;;;;;5038274;28;20200;-83
2022/11/16 08:33:08;;;;;;;10.80;8.63;;;5.80;99.90;;;;;;5014912;28;20570;-75
2022/11/16 08:35:35;;;;;;;10.57;8.75;;;5.80;99.90;;;;;;5024249;28;20172;-74
2022/11/16 08:38:01;;;;;;;8.60;7.70;;;5.90;99.90;;;;;;5027077;28;20199;-73
2022/11/16 08:40:27;;;;;;;8.77;7.70;;;5.90;99.90;;;;;;5041261;28;20278;-74
2022/11/16 08:42:55;;;;;;;10.00;7.78;;;5.90;99.90;;;;;;5028900;28;20640;-74
2022/11/16 08:45:22;;;;;;;8.27;7.47;;;6.00;99.90;;;;;;5044259;28;20188;-75
2022/11/16 08:47:48;;;;;;;7.82;6.85;;;6.00;99.90;;;;;;5041425;28;20192;-74
2022/11/16 08:50:14;;;;;;;8.32;7.45;;;6.00;99.90;;;;;;5045839;28;20293;-72
2022/11/16 08:52:40;;;;;;;7.38;6.68;;;5.90;99.90;;;;;;5036467;28;20262;-73
2022/11/16 08:55:06;;;;;;;8.75;6.70;;;6.00;99.90;;;;;;5037119;28;20231;-73
2022/11/16 08:57:31;;;;;;;9.10;7.35;;;5.90;99.90;;;;;;5038859;28;20192;-73
2022/11/16 08:59:57;;;;;;;7.85;7.00;;;6.00;99.90;;;;;;5039134;28;20702;-71
2022/11/16 09:02:24;;;;;;;8.68;7.60;;;5.90;99.90;;;;;;5026765;28;20172;-72
2022/11/16 09:04:51;;;;;;;9.85;8.20;;;5.90;99.90;;;;;;5029562;28;20226;-71
2022/11/16 09:07:17;;;;;;;8.07;6.95;;;6.00;99.90;;;;;;5032967;28;20517;-73
2022/11/16 09:09:43;;;;;;;7.63;6.82;;;6.10;99.90;;;;;;5027797;28;20243;-74
2022/11/16 09:12:08;;;;;;;7.50;6.80;;;6.10;99.90;;;;;;5023135;28;20184;-74
2022/11/16 09:14:34;;;;;;;7.07;6.10;;;6.10;99.90;;;;;;5031344;28;20181;-74
2022/11/16 09:17:00;;;;;;;6.93;6.18;;;6.20;99.90;;;;;;5014954;28;20173;-72
2022/11/16 09:19:25;;;;;;;6.43;5.82;;;6.30;99.90;;;;;;5034616;28;20195;-75
2022/11/16 09:21:51;;;;;;;8.15;6.63;;;6.20;99.90;;;;;;5041470;28;20639;-74
2022/11/16 09:24:16;;;;;;;7.10;6.40;;;6.30;99.90;;;;;;5032944;28;20196;-75
2022/11/16 09:26:42;;;;;;;8.27;6.07;;;6.30;99.90;;;;;;5029306;28;20180;-72
2022/11/16 09:29:13;;;;;;;6.95;6.30;;;6.40;99.90;;;;;;5028053;28;20252;-73
2022/11/16 09:31:38;;;;;;;7.35;6.18;;;6.40;99.90;;;;;;5038691;28;20180;-72
2022/11/16 09:34:05;;;;;;;6.97;6.10;;;6.40;99.90;;;;;;5036374;28;20180;-71
2022/11/16 09:36:30;;;;;;;6.13;5.55;;;6.30;99.90;;;;;;5048097;28;20172;-72
2022/11/16 09:38:56;;;;;;;6.60;5.97;;;6.30;99.90;;;;;;5040434;28;20564;-72
2022/11/16 09:41:40;;;;;;;6.07;5.47;;;6.30;99.90;;;;;;5041917;28;20191;-72
2022/11/16 09:44:36;;;;;;;6.30;5.70;;;6.50;99.90;;;;;;5037877;28;20176;-72
2022/11/16 09:47:04;;;;;;;6.47;5.90;;;6.60;99.90;;;;;;5040259;28;20193;-72
2022/11/16 09:49:36;;;;;;;7.85;5.55;;;6.60;99.90;;;;;;5047978;28;20201;-72
2022/11/16 09:52:04;;;;;;;6.75;6.15;;;6.60;99.90;;;;;;5037865;28;20636;-72
2022/11/16 09:54:35;;;;;;;6.63;5.90;;;6.70;99.90;;;;;;5030058;28;20195;-72
2022/11/16 09:57:06;;;;;;;5.28;4.70;;;6.80;99.90;;;;;;5036471;28;20181;-72
2022/11/16 09:59:46;;;;;;;6.00;5.40;;;6.80;99.90;;;;;;5039108;28;20195;-73
2022/11/16 10:02:21;;;;;;;7.05;5.88;;;6.80;99.90;;;;;;5037160;28;20188;-73
2022/11/16 10:05:17;;;;;;;6.15;5.65;;;6.80;99.90;;;;;;5044315;28;20182;-72
2022/11/16 10:07:49;;;;;;;6.85;6.03;;;6.80;99.90;;;;;;5034473;28;20176;-74
2022/11/16 10:10:16;;;;;;;6.65;6.05;;;6.80;99.90;;;;;;5031745;28;20213;-74
2022/11/16 10:13:01;;;;;;;6.00;5.43;;;6.80;99.90;;;;;;5044800;28;20187;-74
2022/11/16 10:15:43;;;;;;;6.45;5.88;;;6.80;99.90;;;;;;5031471;28;20171;-74
2022/11/16 10:18:21;;;;;;;7.10;6.40;;;6.80;99.90;;;;;;5041514;28;20634;-73
2022/11/16 10:21:15;;;;;;;6.93;6.30;;;6.80;99.90;;;;;;5038733;28;20207;-73
2022/11/16 10:23:59;;;;;;;6.07;5.47;;;6.80;99.90;;;;;;5036080;28;20202;-73
2022/11/16 10:26:29;;;;;;;6.93;6.22;;;6.90;99.90;;;;;;5041813;28;20183;-72
2022/11/16 10:29:32;;;;;;;7.38;6.70;;;7.00;99.90;;;;;;5044550;28;20266;-73
2022/11/16 10:31:58;;;;;;;6.80;6.10;;;7.10;99.90;;;;;;5041203;28;20172;-72
2022/11/16 10:34:37;;;;;;;6.68;6.00;;;7.20;99.90;;;;;;5032966;28;20510;-72
2022/11/16 10:37:07;;;;;;;8.57;7.68;;;7.20;99.90;;;;;;5039310;28;20177;-72
2022/11/16 10:39:33;;;;;;;7.03;6.35;;;7.10;99.90;;;;;;5044472;28;20204;-72
2022/11/16 10:42:08;;;;;;;6.45;5.95;;;7.20;99.90;;;;;;5042102;28;20180;-73
2022/11/16 10:44:54;;;;;;;6.82;6.22;;;7.10;99.90;;;;;;5032900;28;20639;-73
2022/11/16 10:47:31;;;;;;;7.00;6.30;;;7.10;99.90;;;;;;5039230;28;20218;-73
2022/11/16 10:50:08;;;;;;;6.97;6.38;;;7.20;99.90;;;;;;5033140;28;20207;-71
2022/11/16 10:52:33;;;;;;;7.22;6.53;;;7.10;99.90;;;;;;5032885;28;20171;-73
2022/11/16 10:54:59;;;;;;;6.70;6.10;;;7.20;99.90;;;;;;5035725;28;20169;-73
2022/11/16 10:57:44;;;;;;;6.57;5.97;;;7.20;99.90;;;;;;5043621;28;20681;-73
2022/11/16 11:00:10;;;;;;;6.50;5.90;;;7.30;99.90;;;;;;5034683;28;20206;-73
2022/11/16 11:02:36;;;;;;;6.75;6.10;;;7.40;99.90;;;;;;5041042;28;20184;-74
2022/11/16 11:05:18;;;;;;;7.03;6.32;;;7.40;99.90;;;;;;5039148;28;20188;-73
2022/11/16 11:07:49;;;;;;;6.18;5.68;;;7.30;99.90;;;;;;5042289;28;20177;-73
2022/11/16 11:10:55;;;;;;;6.35;5.75;;;7.20;99.90;;;;;;5041818;28;20192;-73
2022/11/16 11:13:27;;;;;;;6.65;5.45;;;7.10;99.90;;;;;;5035488;28;20211;-73
2022/11/16 11:16:13;;;;;;;6.60;5.95;;;7.20;99.90;;;;;;5034070;28;20310;-73
2022/11/16 11:18:38;;;;;;;6.38;5.82;;;7.20;99.90;;;;;;5041402;28;20277;-73
2022/11/16 11:21:18;;;;;;;7.72;7.03;;;7.10;99.90;;;;;;5028789;28;20603;-73
2022/11/16 11:23:52;;;;;;;6.10;5.50;;;7.10;99.90;;;;;;5034547;28;20185;-73
2022/11/16 11:26:39;;;;;;;5.90;5.30;;;7.20;99.90;;;;;;5036847;28;20682;-74
2022/11/16 11:29:30;;;;;;;6.75;6.15;;;7.30;99.90;;;;;;5039021;28;20577;-73
2022/11/16 11:32:07;;;;;;;6.43;5.82;;;7.00;99.90;;;;;;5038884;28;20260;-73
2022/11/16 11:34:41;;;;;;;6.72;6.13;;;6.80;99.90;;;;;;5027736;28;20176;-75
2022/11/16 11:37:21;;;;;;;6.78;6.07;;;6.80;99.90;;;;;;5040783;28;20172;-73
2022/11/16 11:39:47;;;;;;;6.25;5.75;;;6.90;99.90;;;;;;5030162;28;20226;-73
2022/11/16 11:42:12;;;;;;;6.75;6.13;;;7.00;99.90;;;;;;5033309;28;20181;-73
2022/11/16 11:44:49;;;;;;;7.25;6.55;;;7.10;99.90;;;;;;5041877;28;20184;-73
2022/11/16 11:47:17;;;;;;;9.07;8.13;;;7.10;99.90;;;;;;5034109;28;20554;-73
2022/11/16 11:49:51;;;;;;;8.40;7.50;;;7.20;99.90;;;;;;5035975;28;20270;-73
2022/11/16 11:52:25;;;;;;;7.65;6.85;;;7.10;99.90;;;;;;5042444;28;20176;-73
2022/11/16 11:54:53;;;;;;;7.63;6.93;;;7.10;99.90;;;;;;5035421;28;20180;-73
2022/11/16 11:57:21;;;;;;;8.38;7.45;;;7.20;99.90;;;;;;5038225;28;20181;-73
2022/11/16 11:59:49;;;;;;;8.00;7.20;;;7.20;99.90;;;;;;5035627;28;20195;-73
2022/11/16 12:02:41;;;;;;;6.63;6.03;;;7.20;99.90;;;;;;5035299;28;20734;-72
2022/11/16 12:05:28;;;;;;;6.57;5.95;;;7.10;99.90;;;;;;5039904;28;20245;-74
2022/11/16 12:08:05;;;;;;;6.28;5.68;;;7.20;99.90;;;;;;5040127;28;20230;-73
2022/11/16 12:10:47;;;;;;;5.97;5.47;;;7.20;99.90;;;;;;5031935;28;20722;-73
2022/11/16 12:13:38;;;;;;;6.10;5.63;;;7.40;99.90;;;;;;5036885;28;20176;-74
2022/11/16 12:16:13;;;;;;;5.80;5.30;;;7.50;99.90;;;;;;5032693;28;20269;-73
2022/11/16 12:18:57;;;;;;;6.22;5.57;;;7.40;99.90;;;;;;5025413;28;20650;-72
2022/11/16 12:21:47;;;;;;;6.45;5.82;;;7.40;99.90;;;;;;5037167;28;20214;-73
2022/11/16 12:24:36;;;;;;;6.20;5.60;;;7.50;99.90;;;;;;5040580;28;20191;-73
2022/11/16 12:27:08;;;;;;;5.65;5.20;;;7.50;99.90;;;;;;5029259;28;20172;-73
2022/11/16 12:29:45;;;;;;;7.75;5.90;;;7.60;99.90;;;;;;5033702;28;20287;-74
2022/11/16 12:32:49;;;;;;;6.40;5.80;;;7.70;99.90;;;;;;5043284;28;20176;-74
2022/11/16 12:35:25;;;;;;;6.13;5.53;;;7.70;99.90;;;;;;5032109;28;20665;-75
2022/11/16 12:38:15;;;;;;;6.13;5.53;;;7.70;99.90;;;;;;5037569;28;20212;-73
2022/11/16 12:41:30;;;;;;;5.28;4.88;;;7.80;99.90;;;;;;5029189;28;20214;-73
2022/11/16 12:44:31;;;;;;;6.43;5.93;;;7.80;99.90;;;;;;5017724;28;20207;-74
2022/11/16 12:47:13;;;;;;;5.85;5.35;;;7.90;99.90;;;;;;5033565;28;20298;-74
2022/11/16 12:49:44;;;;;;;6.82;5.30;;;8.00;99.90;;;;;;5028299;28;20216;-74
2022/11/16 12:52:28;;;;;;;6.18;5.68;;;8.10;99.90;;;;;;5024149;28;20228;-74
2022/11/16 12:55:12;;;;;;;6.40;5.80;;;8.20;99.90;;;;;;5017890;28;20231;-74
2022/11/16 12:57:49;;;;;;;6.93;6.22;;;8.30;99.90;;;;;;5032576;28;20179;-74
2022/11/16 13:00:17;;;;;;;6.65;6.05;;;8.30;99.90;;;;;;5028304;28;20188;-73
2022/11/16 13:03:21;;;;;;;6.05;5.38;;;8.30;99.90;;;;;;5033960;28;20177;-74
2022/11/16 13:05:59;;;;;;;6.70;5.90;;;8.20;99.90;;;;;;5020853;28;20191;-73
2022/11/16 13:08:48;;;;;;;7.30;6.28;;;8.10;99.90;;;;;;5016020;28;20208;-74
2022/11/16 13:11:19;;;;;;;6.05;5.55;;;8.00;99.90;;;;;;5019420;28;20452;-71
2022/11/16 13:13:48;;;;;;;7.95;7.18;;;8.00;99.90;;;;;;5026089;28;20177;-73
2022/11/16 13:16:16;;;;;;;6.95;6.35;;;8.00;99.90;;;;;;5042038;28;20218;-74
2022/11/16 13:18:43;;;;;;;7.15;6.55;;;7.90;99.90;;;;;;5033995;28;20208;-73
2022/11/16 13:21:36;;;;;;;7.20;6.60;;;8.00;99.90;;;;;;5037956;28;20188;-73
2022/11/16 13:24:12;;;;;;;6.97;6.28;;;8.00;99.90;;;;;;5026579;28;20199;-73
2022/11/16 13:26:53;;;;;;;6.80;6.20;;;8.00;99.90;;;;;;5033791;28;20301;-73
2022/11/16 13:29:32;;;;;;;7.43;6.65;;;8.00;99.90;;;;;;5046758;28;20206;-73
2022/11/16 13:32:36;;;;;;;7.15;6.45;;;8.10;99.90;;;;;;5040083;28;20187;-73
2022/11/16 13:35:10;;;;;;;6.38;5.88;;;8.20;99.90;;;;;;5036068;28;20180;-73
2022/11/16 13:37:36;;;;;;;6.22;5.63;;;8.40;99.90;;;;;;5033862;28;20177;-73
2022/11/16 13:40:04;;;;;;;7.22;6.55;;;8.50;99.90;;;;;;5044377;28;20573;-73
2022/11/16 13:43:01;;;;;;;8.43;6.57;;;8.50;99.90;;;;;;5044365;28;20184;-73
2022/11/16 13:45:33;;;;;;;6.95;6.35;;;8.40;99.90;;;;;;5033345;28;20566;-74
2022/11/16 13:48:02;;;;;;;6.57;5.97;;;8.40;99.90;;;;;;5041584;28;20582;-73
2022/11/16 13:50:46;;;;;;;7.28;6.68;;;8.30;99.90;;;;;;5024786;28;20204;-74